Time,TemperatureF,DewpointF,PressureIn,WindDirection,WindDirectionDegrees,WindSpeedMPH,WindSpeedGustMPH,Humidity,HourlyPrecipIn,Conditions,Clouds,dailyrainin,SoftwareType,DateUTC
2013-10-23 00:14:00,61.0,59.0,29.84,WSW,243,0.0,0.0,94,0.00,,,0.02,,2013-10-23 04:14:00,
2013-10-23 00:24:00,61.0,59.0,29.84,WSW,243,0.0,0.0,94,0.00,,,0.02,,2013-10-23 04:24:00,
2013-10-23 00:54:00,61.0,59.0,29.83,WSW,243,0.0,0.0,94,0.03,,,0.05,,2013-10-23 04:54:00,
2013-10-23 01:23:00,61.0,59.0,29.82,WSW,243,0.0,0.0,94,0.06,,,0.08,,2013-10-23 05:23:00,
2013-10-23 01:53:00,60.0,58.0,29.82,WSW,257,0.0,0.0,94,0.07,,,0.12,,2013-10-23 05:53:00,
2013-10-23 02:02:00,60.0,58.0,29.82,WSW,257,0.0,0.0,94,0.07,,,0.12,,2013-10-23 06:02:00,
2013-10-23 02:22:00,59.0,57.0,29.82,WSW,257,0.0,0.0,94,0.09,,,0.17,,2013-10-23 06:22:00,
2013-10-23 02:32:00,59.0,57.0,29.82,WSW,257,0.0,0.0,94,0.09,,,0.17,,2013-10-23 06:32:00,
2013-10-23 02:42:00,59.0,57.0,29.82,WSW,257,0.0,0.0,94,0.09,,,0.17,,2013-10-23 06:42:00,
2013-10-23 02:52:00,59.0,57.0,29.81,West,274,0.0,0.0,94,0.10,,,0.22,,2013-10-23 06:52:00,
2013-10-23 03:22:00,59.0,57.0,29.79,West,274,0.0,0.0,94,0.10,,,0.27,,2013-10-23 07:22:00,
2013-10-23 03:52:00,59.0,57.0,29.78,West,274,0.0,0.0,94,0.07,,,0.29,,2013-10-23 07:52:00,
2013-10-23 04:22:00,59.0,57.0,29.76,West,274,0.0,0.0,94,0.03,,,0.30,,2013-10-23 08:22:00,
2013-10-23 04:53:00,59.0,57.0,29.75,West,274,0.0,0.0,94,0.02,,,0.31,,2013-10-23 08:53:00,
2013-10-23 05:22:00,59.0,57.0,29.74,West,274,0.0,0.0,94,0.01,,,0.31,,2013-10-23 09:22:00,
2013-10-23 05:53:00,59.0,57.0,29.73,West,274,0.0,0.0,94,0.00,,,0.31,,2013-10-23 09:53:00,
2013-10-23 06:23:00,59.0,57.0,29.74,West,274,0.0,0.0,94,0.00,,,0.31,,2013-10-23 10:23:00,
2013-10-23 06:53:00,58.0,56.0,29.73,West,274,0.0,0.0,94,0.00,,,0.31,,2013-10-23 10:53:00,
2013-10-23 07:22:00,57.0,55.0,29.72,West,274,0.0,0.0,94,0.00,,,0.31,,2013-10-23 11:22:00,
2013-10-23 07:52:00,57.0,55.0,29.73,West,273,0.0,0.0,94,0.00,,,0.31,,2013-10-23 11:52:00,
2013-10-23 08:22:00,58.0,56.0,29.72,WSW,243,0.0,0.0,94,0.00,,,0.31,,2013-10-23 12:22:00,
2013-10-23 08:52:00,59.0,57.0,29.72,WNW,291,1.0,2.0,94,0.00,,,0.31,,2013-10-23 12:52:00,
2013-10-23 09:22:00,59.0,57.0,29.72,WNW,284,1.0,3.0,94,0.00,,,0.31,,2013-10-23 13:22:00,
2013-10-23 09:52:00,60.0,58.0,29.72,WNW,288,2.0,3.0,94,0.00,,,0.31,,2013-10-23 13:52:00,
2013-10-23 10:22:00,60.0,58.0,29.72,WSW,247,1.0,4.0,94,0.00,,,0.31,,2013-10-23 14:22:00,
2013-10-23 10:52:00,62.0,60.0,29.72,SW,229,1.0,6.0,93,0.00,,,0.31,,2013-10-23 14:52:00,
2013-10-23 11:22:00,65.0,62.0,29.72,WNW,283,2.0,5.0,89,0.00,,,0.31,,2013-10-23 15:22:00,
2013-10-23 11:43:00,65.0,61.0,29.72,NW,315,2.0,7.0,88,0.00,,,0.31,,2013-10-23 15:43:00,
2013-10-23 11:53:00,65.0,61.0,29.71,WNW,293,2.0,4.0,87,0.00,,,0.31,,2013-10-23 15:53:00,
2013-10-23 12:23:00,67.0,62.0,29.71,SSW,200,1.0,5.0,84,0.00,,,0.31,,2013-10-23 16:23:00,
2013-10-23 12:53:00,70.0,62.0,29.69,WSW,258,3.0,8.0,76,0.00,,,0.31,,2013-10-23 16:53:00,
2013-10-23 13:23:00,72.0,63.0,29.68,SW,236,2.0,6.0,74,0.00,,,0.31,,2013-10-23 17:23:00,
2013-10-23 13:52:00,72.0,60.0,29.66,NNE,29,3.0,8.0,66,0.00,,,0.31,,2013-10-23 17:52:00,
2013-10-23 14:22:00,70.0,57.0,29.66,NNE,13,3.0,10.0,64,0.00,,,0.31,,2013-10-23 18:22:00,
2013-10-23 14:32:00,70.0,57.0,29.66,NNE,13,3.0,10.0,64,0.00,,,0.31,,2013-10-23 18:32:00,
2013-10-23 14:42:00,70.0,57.0,29.66,NNE,13,3.0,10.0,64,0.00,,,0.31,,2013-10-23 18:42:00,
2013-10-23 14:52:00,71.0,58.0,29.66,NNW,330,3.0,10.0,63,0.00,,,0.31,,2013-10-23 18:52:00,
2013-10-23 15:12:00,70.0,55.0,29.65,West,275,2.0,9.0,60,0.00,,,0.31,,2013-10-23 19:12:00,
2013-10-23 15:22:00,69.0,55.0,29.66,WNW,288,2.0,6.0,62,0.00,,,0.31,,2013-10-23 19:22:00,
2013-10-23 15:53:00,70.0,56.0,29.66,West,276,3.0,7.0,62,0.00,,,0.31,,2013-10-23 19:53:00,
2013-10-23 16:22:00,71.0,55.0,29.67,NW,307,3.0,9.0,58,0.00,,,0.31,,2013-10-23 20:22:00,
2013-10-23 16:52:00,68.0,57.0,29.69,NW,317,3.0,7.0,67,0.00,,,0.31,,2013-10-23 20:52:00,
2013-10-23 17:22:00,68.0,57.0,29.71,WNW,283,3.0,8.0,68,0.00,,,0.31,,2013-10-23 21:22:00,
2013-10-23 17:54:00,67.0,56.0,29.72,NNW,340,1.0,5.0,69,0.00,,,0.31,,2013-10-23 21:54:00,
2013-10-23 18:24:00,65.0,55.0,29.75,NNW,338,1.0,5.0,71,0.00,,,0.31,,2013-10-23 22:24:00,
2013-10-23 18:54:00,63.0,56.0,29.76,NNW,343,0.0,1.0,77,0.00,,,0.31,,2013-10-23 22:54:00,
2013-10-23 19:22:00,59.0,55.0,29.78,NNW,343,0.0,0.0,86,0.00,,,0.31,,2013-10-23 23:22:00,
2013-10-23 19:53:00,57.0,55.0,29.80,NNW,343,0.0,0.0,92,0.00,,,0.31,,2013-10-23 23:53:00,
2013-10-23 20:22:00,55.0,53.0,29.82,NNW,342,0.0,0.0,93,0.00,,,0.30,,2013-10-24 00:22:00,
2013-10-23 20:52:00,55.0,52.0,29.84,NNE,18,0.0,1.0,89,0.00,,,0.30,,2013-10-24 00:52:00,
2013-10-23 21:22:00,56.0,52.0,29.85,NNE,18,0.0,0.0,86,0.00,,,0.29,,2013-10-24 01:22:00,
2013-10-23 21:52:00,53.0,50.0,29.87,NNE,18,0.0,0.0,91,0.00,,,0.29,,2013-10-24 01:52:00,
2013-10-23 22:12:00,53.0,51.0,29.87,NNE,19,0.0,0.0,92,0.00,,,0.29,,2013-10-24 02:12:00,
2013-10-23 22:22:00,52.0,49.0,29.88,NNE,19,0.0,0.0,91,0.00,,,0.29,,2013-10-24 02:22:00,
2013-10-23 23:22:00,54.0,47.0,29.93,NNW,336,1.0,5.0,78,0.00,,,0.29,,2013-10-24 03:22:00,
2013-10-23 23:55:00,54.0,46.0,29.94,NNW,338,1.0,5.0,74,0.00,,,0.29,,2013-10-24 03:55:00,